Time;durP1;ratioP1;P1;durP2;ratioP2;P2;SDS_P1;SDS_P2;PMS_P1;PMS_P2;Temp;Humidity;BMP_temperature;BMP_pressure;BME280_temperature;BME280_humidity;BME280_pressure;Samples;Min_cycle;Max_cycle;Signal;HPM_P1;HPM_P2
2023/07/08 00:01:12;;;;;;;;;7.75;7.75;;;;;;;;5049992;28;8802;-81
2023/07/08 00:03:45;;;;;;;;;6.00;6.00;;;;;;;;5050775;28;8860;-81
2023/07/08 00:06:16;;;;;;;;;7.75;6.75;;;;;;;;5050270;28;8854;-81
2023/07/08 00:08:43;;;;;;;;;5.25;4.00;;;;;;;;5050268;28;8865;-81
2023/07/08 00:11:13;;;;;;;;;8.25;7.00;;;;;;;;5050161;28;8857;-81
2023/07/08 00:13:47;;;;;;;;;8.75;6.75;;;;;;;;5049953;28;8899;-80
2023/07/08 00:16:18;;;;;;;;;6.75;6.75;;;;;;;;5048841;28;8872;-81
2023/07/08 00:18:45;;;;;;;;;5.50;5.50;;;;;;;;5049055;28;8872;-81
2023/07/08 00:21:16;;;;;;;;;10.25;8.50;;;;;;;;5050368;28;8849;-81
2023/07/08 00:23:45;;;;;;;;;5.00;5.00;;;;;;;;5051112;28;8968;-82
2023/07/08 00:26:19;;;;;;;;;9.50;7.75;;;;;;;;5051832;28;8876;-81
2023/07/08 00:28:46;;;;;;;;;7.75;7.75;;;;;;;;5053250;28;8888;-81
2023/07/08 00:31:14;;;;;;;;;8.75;8.75;;;;;;;;5053634;28;9672;-80
2023/07/08 00:33:44;;;;;;;;;6.50;6.50;;;;;;;;5054630;28;8865;-82
2023/07/08 00:36:14;;;;;;;;;8.50;7.25;;;;;;;;5054216;28;8854;-81
2023/07/08 00:38:44;;;;;;;;;9.25;8.00;;;;;;;;5053445;28;8865;-82
2023/07/08 00:41:17;;;;;;;;;7.75;7.00;;;;;;;;5051439;28;8845;-81
2023/07/08 00:43:51;;;;;;;;;9.00;9.00;;;;;;;;5050484;28;8873;-81
2023/07/08 00:46:30;;;;;;;;;9.75;7.00;;;;;;;;5049603;28;8931;-82
2023/07/08 00:49:01;;;;;;;;;9.00;7.75;;;;;;;;5049883;28;8999;-82
2023/07/08 00:51:28;;;;;;;;;11.25;11.25;;;;;;;;5050021;28;9004;-83
2023/07/08 00:53:56;;;;;;;;;10.75;10.00;;;;;;;;5049395;28;8854;-83
2023/07/08 00:56:28;;;;;;;;;7.50;7.50;;;;;;;;5049865;28;8972;-82
2023/07/08 00:58:58;;;;;;;;;6.50;6.50;;;;;;;;5049897;28;8935;-82
2023/07/08 01:01:28;;;;;;;;;11.75;10.50;;;;;;;;5049290;28;8924;-82
2023/07/08 01:03:57;;;;;;;;;10.75;9.50;;;;;;;;5049520;28;8842;-83
2023/07/08 01:06:31;;;;;;;;;11.00;7.75;;;;;;;;5050132;28;9021;-82
2023/07/08 01:08:59;;;;;;;;;10.75;9.25;;;;;;;;5051478;28;9742;-82
2023/07/08 01:11:28;;;;;;;;;8.25;8.25;;;;;;;;5052835;28;8996;-82
2023/07/08 01:13:55;;;;;;;;;7.00;7.00;;;;;;;;5053311;28;8868;-82
2023/07/08 01:16:23;;;;;;;;;9.00;9.00;;;;;;;;5051821;28;8903;-81
2023/07/08 01:18:53;;;;;;;;;10.00;10.00;;;;;;;;5050076;28;8857;-81
2023/07/08 01:21:33;;;;;;;;;8.00;8.00;;;;;;;;5049592;28;8853;-81
2023/07/08 01:24:04;;;;;;;;;8.25;7.00;;;;;;;;5049565;28;8874;-82
2023/07/08 01:26:32;;;;;;;;;8.75;8.75;;;;;;;;5049579;28;8841;-82
2023/07/08 01:29:00;;;;;;;;;9.00;9.00;;;;;;;;5049536;28;8871;-83
2023/07/08 01:31:27;;;;;;;;;10.50;9.25;;;;;;;;5048712;28;8794;-82
2023/07/08 01:33:55;;;;;;;;;9.00;7.50;;;;;;;;5049145;28;8850;-83
2023/07/08 01:36:22;;;;;;;;;7.75;7.75;;;;;;;;5049388;28;8849;-82
2023/07/08 01:38:50;;;;;;;;;9.75;9.00;;;;;;;;5049326;28;8973;-82
2023/07/08 01:41:18;;;;;;;;;9.00;9.00;;;;;;;;5049118;28;8880;-82
2023/07/08 01:43:45;;;;;;;;;11.50;8.75;;;;;;;;5049027;28;8964;-81
2023/07/08 01:46:16;;;;;;;;;9.75;9.75;;;;;;;;5049831;28;8860;-81
2023/07/08 01:48:48;;;;;;;;;8.00;8.00;;;;;;;;5053001;28;8861;-82
2023/07/08 01:51:15;;;;;;;;;10.75;8.25;;;;;;;;5053303;28;9715;-81
2023/07/08 01:53:44;;;;;;;;;9.75;9.75;;;;;;;;5051933;28;8845;-81
2023/07/08 01:56:17;;;;;;;;;7.00;7.00;;;;;;;;5053216;28;8857;-82
2023/07/08 01:58:46;;;;;;;;;12.25;10.50;;;;;;;;5052872;28;8871;-82
2023/07/08 02:01:15;;;;;;;;;9.75;8.75;;;;;;;;5053154;28;8793;-81
2023/07/08 02:03:42;;;;;;;;;10.25;7.75;;;;;;;;5054430;28;8837;-82
2023/07/08 02:06:10;;;;;;;;;8.00;8.00;;;;;;;;5055242;28;8858;-81
2023/07/08 02:08:37;;;;;;;;;11.25;9.75;;;;;;;;5056864;28;8930;-82
2023/07/08 02:11:04;;;;;;;;;8.75;8.75;;;;;;;;5057241;28;8857;-82
2023/07/08 02:13:32;;;;;;;;;7.75;7.75;;;;;;;;5056828;28;8877;-81
2023/07/08 02:16:00;;;;;;;;;12.00;9.75;;;;;;;;5056677;28;8885;-82
2023/07/08 02:18:32;;;;;;;;;7.50;7.50;;;;;;;;5054506;28;8853;-82
2023/07/08 02:20:59;;;;;;;;;9.50;9.50;;;;;;;;5053206;28;8899;-82
2023/07/08 02:23:27;;;;;;;;;9.00;9.00;;;;;;;;5052463;28;8869;-83
2023/07/08 02:25:55;;;;;;;;;7.25;7.25;;;;;;;;5052539;28;8857;-82
2023/07/08 02:28:23;;;;;;;;;9.50;7.00;;;;;;;;5052344;28;8939;-81
2023/07/08 02:30:50;;;;;;;;;8.00;8.00;;;;;;;;5051461;28;9569;-81
2023/07/08 02:33:19;;;;;;;;;24.75;22.25;;;;;;;;5052435;28;8984;-81
2023/07/08 02:35:46;;;;;;;;;12.75;12.75;;;;;;;;5052521;28;8869;-81
2023/07/08 02:38:14;;;;;;;;;11.25;11.25;;;;;;;;5052086;28;8862;-81
2023/07/08 02:40:44;;;;;;;;;9.50;9.50;;;;;;;;5051982;28;8963;-81
2023/07/08 02:43:12;;;;;;;;;7.00;7.00;;;;;;;;5052487;28;8854;-83
2023/07/08 02:45:39;;;;;;;;;10.50;9.50;;;;;;;;5052749;28;8907;-79
2023/07/08 02:48:07;;;;;;;;;12.00;12.00;;;;;;;;5053677;28;8865;-82
2023/07/08 02:50:35;;;;;;;;;10.50;10.50;;;;;;;;5055185;28;8861;-81
2023/07/08 02:53:03;;;;;;;;;9.25;8.75;;;;;;;;5055853;28;8845;-81
2023/07/08 02:55:30;;;;;;;;;12.50;10.50;;;;;;;;5053468;28;8976;-81
2023/07/08 02:57:58;;;;;;;;;10.25;10.25;;;;;;;;5051637;28;8865;-81
2023/07/08 03:00:25;;;;;;;;;10.75;10.75;;;;;;;;5051297;28;8988;-80
2023/07/08 03:02:52;;;;;;;;;8.00;8.00;;;;;;;;5051762;28;8857;-80
2023/07/08 03:05:19;;;;;;;;;10.00;10.00;;;;;;;;5051947;28;8992;-81
2023/07/08 03:07:48;;;;;;;;;11.50;11.50;;;;;;;;5051888;28;8852;-83
2023/07/08 03:10:16;;;;;;;;;10.50;10.50;;;;;;;;5051561;28;8841;-79
2023/07/08 03:12:43;;;;;;;;;10.00;10.00;;;;;;;;5052170;28;8857;-81
2023/07/08 03:15:13;;;;;;;;;7.00;7.00;;;;;;;;5051488;28;8903;-81
2023/07/08 03:17:43;;;;;;;;;9.25;9.00;;;;;;;;5051064;28;9343;-82
2023/07/08 03:20:11;;;;;;;;;13.00;11.75;;;;;;;;5051463;28;8979;-80
2023/07/08 03:22:38;;;;;;;;;9.50;9.50;;;;;;;;5051266;28;8880;-81
2023/07/08 03:25:09;;;;;;;;;12.75;11.75;;;;;;;;5051602;28;8838;-82
2023/07/08 03:27:36;;;;;;;;;11.25;10.00;;;;;;;;5051675;28;8888;-81
2023/07/08 03:30:05;;;;;;;;;10.25;10.25;;;;;;;;5051058;28;8976;-81
2023/07/08 03:32:32;;;;;;;;;10.75;10.75;;;;;;;;5051123;28;8891;-81
2023/07/08 03:35:01;;;;;;;;;9.25;8.00;;;;;;;;5051369;28;8862;-81
2023/07/08 03:37:28;;;;;;;;;10.25;10.25;;;;;;;;5051083;28;8854;-80
2023/07/08 03:39:55;;;;;;;;;10.75;10.00;;;;;;;;5051494;28;8978;-81
2023/07/08 03:42:24;;;;;;;;;12.25;11.25;;;;;;;;5052205;28;8857;-79
2023/07/08 03:44:54;;;;;;;;;12.50;10.50;;;;;;;;5054032;28;9005;-80
2023/07/08 03:47:21;;;;;;;;;10.75;9.00;;;;;;;;5054266;28;8980;-80
2023/07/08 03:49:49;;;;;;;;;8.00;8.00;;;;;;;;5055057;28;8950;-80
2023/07/08 03:52:17;;;;;;;;;11.25;11.25;;;;;;;;5054779;28;8883;-80
2023/07/08 03:54:45;;;;;;;;;12.00;12.00;;;;;;;;5054159;28;8841;-80
2023/07/08 03:57:12;;;;;;;;;11.00;11.00;;;;;;;;5051963;28;8999;-80
2023/07/08 03:59:43;;;;;;;;;10.25;10.00;;;;;;;;5050669;28;8841;-82
2023/07/08 04:02:15;;;;;;;;;13.25;10.25;;;;;;;;5040009;28;8782;-81
2023/07/08 04:04:42;;;;;;;;;10.50;10.50;;;;;;;;5049526;28;9632;-81
2023/07/08 04:07:12;;;;;;;;;13.00;13.00;;;;;;;;5049843;28;8968;-82
2023/07/08 04:09:40;;;;;;;;;10.50;9.25;;;;;;;;5048677;28;8853;-81
2023/07/08 04:12:08;;;;;;;;;7.00;7.00;;;;;;;;5049654;28;8984;-80
2023/07/08 04:14:36;;;;;;;;;11.25;10.50;;;;;;;;5049411;28;8968;-80
2023/07/08 04:17:05;;;;;;;;;12.00;12.00;;;;;;;;5050079;28;8861;-81
2023/07/08 04:19:32;;;;;;;;;11.75;11.75;;;;;;;;5049593;28;8896;-82
2023/07/08 04:21:59;;;;;;;;;12.25;12.25;;;;;;;;5050268;28;8850;-81
2023/07/08 04:24:29;;;;;;;;;11.00;9.25;;;;;;;;5050841;28;8854;-81
2023/07/08 04:26:56;;;;;;;;;9.75;8.75;;;;;;;;5051907;28;8879;-80
2023/07/08 04:29:24;;;;;;;;;11.25;11.25;;;;;;;;5052918;28;8966;-81
2023/07/08 04:31:51;;;;;;;;;12.50;10.50;;;;;;;;5053442;28;8781;-80
2023/07/08 04:34:20;;;;;;;;;13.00;11.25;;;;;;;;5051505;28;9020;-81
2023/07/08 04:36:48;;;;;;;;;13.00;11.50;;;;;;;;5049508;28;8988;-80
2023/07/08 04:39:15;;;;;;;;;10.50;10.50;;;;;;;;5049590;28;8862;-81
2023/07/08 04:41:43;;;;;;;;;9.75;9.75;;;;;;;;5049203;28;8877;-81
2023/07/08 04:44:14;;;;;;;;;9.50;9.50;;;;;;;;5049472;28;8850;-82
2023/07/08 04:46:43;;;;;;;;;10.00;10.00;;;;;;;;5049076;28;8857;-82
2023/07/08 04:49:11;;;;;;;;;11.25;11.25;;;;;;;;5049514;28;8857;-82
2023/07/08 04:51:41;;;;;;;;;11.00;11.00;;;;;;;;5049076;28;8997;-82
2023/07/08 04:54:09;;;;;;;;;13.25;11.00;;;;;;;;5049088;28;8858;-81
2023/07/08 04:56:38;;;;;;;;;14.00;12.00;;;;;;;;5048893;28;8866;-81
2023/07/08 04:59:07;;;;;;;;;9.00;8.50;;;;;;;;5049357;28;8849;-82
2023/07/08 05:01:35;;;;;;;;;14.00;12.75;;;;;;;;5048457;28;8812;-82
2023/07/08 05:04:05;;;;;;;;;11.50;11.00;;;;;;;;5048959;28;8881;-81
2023/07/08 05:06:33;;;;;;;;;11.00;11.00;;;;;;;;5049091;28;8880;-81
2023/07/08 05:09:03;;;;;;;;;12.50;11.00;;;;;;;;5049164;28;8873;-82
2023/07/08 05:11:30;;;;;;;;;8.50;8.50;;;;;;;;5048933;28;8854;-83
2023/07/08 05:13:58;;;;;;;;;10.00;10.00;;;;;;;;5049137;28;8891;-84
2023/07/08 05:16:25;;;;;;;;;10.00;10.00;;;;;;;;5049703;28;8872;-82
2023/07/08 05:18:52;;;;;;;;;11.50;11.50;;;;;;;;5049791;28;8889;-82
2023/07/08 05:21:20;;;;;;;;;12.00;12.00;;;;;;;;5051238;28;8857;-83
2023/07/08 05:23:49;;;;;;;;;13.25;13.25;;;;;;;;5055162;28;8881;-82
2023/07/08 05:26:18;;;;;;;;;11.00;11.00;;;;;;;;5055899;28;8948;-83
2023/07/08 05:28:45;;;;;;;;;15.00;13.00;;;;;;;;5056233;28;8860;-82
2023/07/08 05:31:13;;;;;;;;;13.75;13.75;;;;;;;;5056231;28;8956;-82
2023/07/08 05:33:41;;;;;;;;;5.75;5.50;;;;;;;;5054924;28;8892;-84
2023/07/08 05:36:08;;;;;;;;;16.75;13.75;;;;;;;;5053718;28;8861;-81
2023/07/08 05:38:35;;;;;;;;;9.25;9.25;;;;;;;;5052683;28;8879;-81
2023/07/08 05:41:02;;;;;;;;;12.50;10.75;;;;;;;;5052550;28;8877;-81
2023/07/08 05:43:31;;;;;;;;;10.25;10.25;;;;;;;;5052092;28;8869;-82
2023/07/08 05:46:02;;;;;;;;;12.50;12.50;;;;;;;;5051920;28;8845;-80
2023/07/08 05:48:33;;;;;;;;;12.75;12.50;;;;;;;;5052292;28;8858;-81
2023/07/08 05:51:00;;;;;;;;;20.75;16.25;;;;;;;;5052385;28;9658;-80
2023/07/08 05:53:30;;;;;;;;;10.25;9.50;;;;;;;;5052824;28;8969;-81
2023/07/08 05:56:01;;;;;;;;;10.25;9.50;;;;;;;;5052467;28;8874;-80
2023/07/08 05:58:30;;;;;;;;;10.50;10.50;;;;;;;;5052728;28;8845;-80
2023/07/08 06:00:58;;;;;;;;;9.75;9.75;;;;;;;;5053407;28;9699;-81
2023/07/08 06:03:25;;;;;;;;;9.25;9.25;;;;;;;;5055719;28;8936;-82
2023/07/08 06:05:53;;;;;;;;;8.75;8.75;;;;;;;;5056418;28;9739;-84
2023/07/08 06:08:21;;;;;;;;;13.20;11.80;;;;;;;;5053650;28;8896;-82
2023/07/08 06:10:49;;;;;;;;;10.60;10.60;;;;;;;;5052188;28;8992;-80
2023/07/08 06:13:16;;;;;;;;;12.20;12.20;;;;;;;;5052107;28;8879;-81
2023/07/08 06:15:45;;;;;;;;;8.40;8.20;;;;;;;;5051782;28;8979;-83
2023/07/08 06:18:12;;;;;;;;;14.40;14.40;;;;;;;;5051981;28;8896;-81
2023/07/08 06:20:39;;;;;;;;;11.80;10.40;;;;;;;;5051660;28;8868;-81
2023/07/08 06:23:06;;;;;;;;;7.60;7.60;;;;;;;;5051787;28;8857;-80
2023/07/08 06:25:34;;;;;;;;;9.20;7.80;;;;;;;;5051871;28;9199;-81
2023/07/08 06:28:01;;;;;;;;;10.20;10.20;;;;;;;;5051867;28;8976;-81
2023/07/08 06:30:30;;;;;;;;;9.00;8.00;;;;;;;;5051197;28;8751;-80
2023/07/08 06:33:01;;;;;;;;;9.40;8.00;;;;;;;;5051010;28;8853;-80
2023/07/08 06:35:29;;;;;;;;;7.80;7.80;;;;;;;;5051424;28;8888;-80
2023/07/08 06:38:00;;;;;;;;;9.60;9.60;;;;;;;;5051820;28;8861;-82
2023/07/08 06:40:30;;;;;;;;;10.60;10.60;;;;;;;;5052155;28;8884;-82
2023/07/08 06:42:58;;;;;;;;;6.00;6.00;;;;;;;;5051718;28;8857;-82
2023/07/08 06:45:28;;;;;;;;;11.40;10.00;;;;;;;;5052118;28;8865;-79
2023/07/08 06:47:55;;;;;;;;;7.20;7.20;;;;;;;;5052352;28;8911;-79
2023/07/08 06:50:24;;;;;;;;;8.20;8.00;;;;;;;;5052002;28;8988;-83
2023/07/08 06:52:51;;;;;;;;;9.60;9.60;;;;;;;;5057616;28;8960;-85
2023/07/08 06:55:18;;;;;;;;;10.40;8.40;;;;;;;;5054268;28;8865;-80
2023/07/08 06:57:46;;;;;;;;;7.60;7.60;;;;;;;;5054355;28;8884;-82
2023/07/08 07:00:13;;;;;;;;;22.00;21.00;;;;;;;;5055496;28;8868;-80
2023/07/08 07:02:41;;;;;;;;;9.40;9.40;;;;;;;;5057014;28;8845;-81
2023/07/08 07:05:08;;;;;;;;;12.20;9.00;;;;;;;;5056779;28;8853;-83
2023/07/08 07:07:37;;;;;;;;;6.80;6.80;;;;;;;;5055991;28;8876;-81
2023/07/08 07:10:05;;;;;;;;;11.00;9.60;;;;;;;;5053486;28;9008;-80
2023/07/08 07:12:32;;;;;;;;;8.20;8.20;;;;;;;;5052024;28;9623;-79
2023/07/08 07:15:00;;;;;;;;;7.60;7.60;;;;;;;;5051451;28;8865;-83
2023/07/08 07:17:27;;;;;;;;;6.20;6.20;;;;;;;;5051436;28;8859;-89
2023/07/08 07:19:55;;;;;;;;;3.80;3.80;;;;;;;;5051823;28;8881;-83
2023/07/08 07:22:22;;;;;;;;;7.00;7.00;;;;;;;;5050775;28;8864;-82
2023/07/08 07:24:51;;;;;;;;;4.60;4.60;;;;;;;;5050388;28;8858;-73
2023/07/08 07:27:18;;;;;;;;;6.80;5.20;;;;;;;;5050589;28;8919;-79
2023/07/08 07:29:48;;;;;;;;;8.20;6.40;;;;;;;;5050039;28;8992;-77
2023/07/08 07:32:16;;;;;;;;;7.20;5.80;;;;;;;;5049953;28;8770;-77
2023/07/08 07:34:43;;;;;;;;;5.60;5.60;;;;;;;;5050197;28;8853;-78
2023/07/08 07:37:14;;;;;;;;;7.00;5.20;;;;;;;;5051367;28;8876;-83
2023/07/08 07:39:44;;;;;;;;;6.00;6.00;;;;;;;;5050539;28;8869;-84
2023/07/08 07:42:13;;;;;;;;;6.80;6.00;;;;;;;;5050688;28;8957;-82
2023/07/08 07:44:41;;;;;;;;;6.40;5.20;;;;;;;;5050743;28;8872;-81
2023/07/08 07:47:12;;;;;;;;;6.00;5.00;;;;;;;;5050833;28;8826;-86
2023/07/08 07:49:40;;;;;;;;;4.60;4.40;;;;;;;;5051011;28;8880;-85
2023/07/08 07:52:08;;;;;;;;;5.80;5.20;;;;;;;;5050781;28;8861;-84
2023/07/08 07:54:36;;;;;;;;;5.40;4.00;;;;;;;;5050051;28;8885;-83
2023/07/08 07:57:03;;;;;;;;;5.20;4.60;;;;;;;;5051145;28;9649;-73
2023/07/08 07:59:32;;;;;;;;;6.00;6.00;;;;;;;;5051277;28;8857;-87
2023/07/08 08:01:59;;;;;;;;;4.00;4.00;;;;;;;;5053315;28;9672;-73
2023/07/08 08:04:26;;;;;;;;;4.80;4.80;;;;;;;;5053607;28;8891;-86
2023/07/08 08:06:53;;;;;;;;;5.00;5.00;;;;;;;;5052059;28;8857;-74
2023/07/08 08:09:20;;;;;;;;;0.20;0.20;;;;;;;;5051058;28;8883;-85
2023/07/08 08:11:48;;;;;;;;;4.00;4.00;;;;;;;;5050341;28;9252;-87
2023/07/08 08:14:15;;;;;;;;;5.20;3.40;;;;;;;;5050090;28;8853;-81
2023/07/08 08:16:43;;;;;;;;;4.60;3.80;;;;;;;;5049944;28;8968;-82
2023/07/08 08:19:11;;;;;;;;;5.20;4.40;;;;;;;;5050216;28;8920;-85
2023/07/08 08:21:38;;;;;;;;;4.40;2.80;;;;;;;;5049943;28;8869;-80
2023/07/08 08:24:06;;;;;;;;;2.20;1.00;;;;;;;;5049489;28;8924;-82
2023/07/08 08:26:33;;;;;;;;;6.20;3.60;;;;;;;;5049697;28;8872;-77
2023/07/08 08:29:01;;;;;;;;;3.00;3.00;;;;;;;;5050245;28;8873;-84
2023/07/08 08:31:28;;;;;;;;;5.40;5.00;;;;;;;;5049698;28;9572;-75
2023/07/08 08:33:57;;;;;;;;;4.00;4.00;;;;;;;;5051638;28;8897;-81
2023/07/08 08:36:24;;;;;;;;;4.20;3.00;;;;;;;;5052778;28;8903;-80
2023/07/08 08:38:51;;;;;;;;;6.00;4.60;;;;;;;;5051715;28;8872;-79
2023/07/08 08:41:20;;;;;;;;;3.60;3.60;;;;;;;;5050725;28;9003;-78
2023/07/08 08:43:49;;;;;;;;;3.20;3.20;;;;;;;;5050853;28;8920;-82
2023/07/08 08:46:27;;;;;;;;;3.60;2.80;;;;;;;;5049534;28;8980;-78
2023/07/08 08:49:00;;;;;;;;;2.00;2.00;;;;;;;;5049521;28;8849;-80
2023/07/08 08:51:31;;;;;;;;;4.00;2.20;;;;;;;;5049297;28;8865;-77
2023/07/08 08:53:59;;;;;;;;;3.00;3.00;;;;;;;;5049283;28;8857;-73
2023/07/08 08:56:29;;;;;;;;;3.20;3.20;;;;;;;;5048822;28;8863;-77
2023/07/08 08:59:04;;;;;;;;;3.60;3.60;;;;;;;;5049608;28;8853;-82
2023/07/08 09:01:31;;;;;;;;;3.80;2.80;;;;;;;;5048412;28;8797;-76
2023/07/08 09:04:03;;;;;;;;;2.20;2.20;;;;;;;;5048562;28;8873;-74
2023/07/08 09:06:34;;;;;;;;;2.40;2.40;;;;;;;;5048288;28;8857;-78
2023/07/08 09:09:04;;;;;;;;;2.00;2.00;;;;;;;;5049048;28;8902;-75
2023/07/08 09:11:41;;;;;;;;;3.20;2.80;;;;;;;;5048689;28;8895;-75
2023/07/08 09:14:16;;;;;;;;;4.00;2.00;;;;;;;;5048667;28;8837;-74
2023/07/08 09:16:49;;;;;;;;;3.00;1.40;;;;;;;;5048550;28;8857;-79
2023/07/08 09:19:23;;;;;;;;;4.00;2.20;;;;;;;;5050309;28;8853;-86
2023/07/08 09:21:56;;;;;;;;;4.00;2.00;;;;;;;;5048969;28;8857;-74
2023/07/08 09:24:30;;;;;;;;;1.80;1.80;;;;;;;;5049497;28;8999;-83
2023/07/08 09:27:00;;;;;;;;;3.00;3.00;;;;;;;;5049286;28;8991;-83
2023/07/08 09:29:28;;;;;;;;;4.00;4.00;;;;;;;;5049167;28;8907;-80
2023/07/08 09:31:55;;;;;;;;;3.20;3.20;;;;;;;;5048752;28;8797;-72
2023/07/08 09:34:37;;;;;;;;;2.80;2.60;;;;;;;;5048860;28;8865;-76
2023/07/08 09:37:05;;;;;;;;;2.60;2.60;;;;;;;;5049139;28;9002;-77
2023/07/08 09:39:33;;;;;;;;;2.20;2.20;;;;;;;;5049078;28;8868;-79
2023/07/08 09:42:08;;;;;;;;;2.00;2.00;;;;;;;;5049092;28;8865;-80
2023/07/08 09:44:35;;;;;;;;;2.60;2.60;;;;;;;;5048744;28;8861;-82
2023/07/08 09:47:03;;;;;;;;;5.00;2.00;;;;;;;;5048554;28;8895;-80
2023/07/08 09:49:34;;;;;;;;;2.80;2.80;;;;;;;;5048491;28;8863;-80
2023/07/08 09:52:02;;;;;;;;;4.80;3.40;;;;;;;;5048472;28;8895;-79
2023/07/08 09:54:30;;;;;;;;;2.00;2.00;;;;;;;;5048704;28;8846;-75
2023/07/08 09:57:01;;;;;;;;;3.00;3.00;;;;;;;;5048845;28;8881;-80
2023/07/08 09:59:34;;;;;;;;;2.80;2.80;;;;;;;;5048333;28;8857;-76
2023/07/08 10:02:03;;;;;;;;;3.00;3.00;;;;;;;;5048019;28;8821;-82
2023/07/08 10:04:32;;;;;;;;;2.00;2.00;;;;;;;;5048892;28;8846;-86
2023/07/08 10:07:01;;;;;;;;;3.00;3.00;;;;;;;;5049528;28;8980;-79
2023/07/08 10:09:28;;;;;;;;;0.00;0.00;;;;;;;;5053271;28;8888;-80
2023/07/08 10:11:59;;;;;;;;;4.80;3.00;;;;;;;;5055522;28;8865;-80
2023/07/08 10:14:32;;;;;;;;;3.60;3.60;;;;;;;;5055499;28;8849;-86
2023/07/08 10:17:00;;;;;;;;;3.20;3.20;;;;;;;;5055639;28;8845;-80
2023/07/08 10:19:27;;;;;;;;;3.20;3.20;;;;;;;;5054416;28;9003;-80
2023/07/08 10:22:32;;;;;;;;;3.40;3.40;;;;;;;;5052956;28;8884;-81
2023/07/08 10:25:09;;;;;;;;;3.40;3.40;;;;;;;;5047331;28;8857;-76
2023/07/08 10:27:40;;;;;;;;;3.00;3.00;;;;;;;;5051006;28;9766;-77
2023/07/08 10:30:21;;;;;;;;;2.40;2.40;;;;;;;;5051007;28;8989;-72
2023/07/08 10:33:01;;;;;;;;;9.00;8.00;;;;;;;;5051287;28;9325;-76
2023/07/08 10:35:31;;;;;;;;;37.40;31.40;;;;;;;;5050740;28;8862;-74
2023/07/08 10:38:24;;;;;;;;;17.20;14.00;;;;;;;;5051623;28;8837;-75
2023/07/08 10:40:55;;;;;;;;;21.80;20.80;;;;;;;;5051046;28;8857;-77
2023/07/08 10:43:45;;;;;;;;;5.40;5.40;;;;;;;;5051809;28;9639;-77
2023/07/08 10:46:25;;;;;;;;;7.40;5.80;;;;;;;;5051122;28;8861;-76
2023/07/08 10:49:04;;;;;;;;;3.80;3.40;;;;;;;;5051062;28;8845;-72
2023/07/08 10:51:38;;;;;;;;;3.40;3.40;;;;;;;;5050908;28;8869;-78
2023/07/08 10:54:47;;;;;;;;;4.00;4.00;;;;;;;;5051408;28;8989;-77
2023/07/08 10:57:28;;;;;;;;;4.20;4.20;;;;;;;;5051023;28;8872;-79
2023/07/08 11:00:00;;;;;;;;;3.80;3.00;;;;;;;;5051044;28;9670;-74
2023/07/08 11:02:57;;;;;;;;;1.60;1.60;;;;;;;;5051064;28;8785;-73
2023/07/08 11:05:31;;;;;;;;;5.80;4.40;;;;;;;;5020729;28;9676;-74
2023/07/08 11:08:03;;;;;;;;;4.40;4.40;;;;;;;;5031013;28;8860;-72
2023/07/08 11:10:35;;;;;;;;;4.40;4.40;;;;;;;;5030745;28;8874;-79
2023/07/08 11:13:04;;;;;;;;;3.60;3.60;;;;;;;;5030994;28;8832;-79
2023/07/08 11:15:35;;;;;;;;;5.00;3.40;;;;;;;;5030629;28;9656;-76
2023/07/08 11:18:06;;;;;;;;;3.20;3.20;;;;;;;;5030834;28;8840;-81
2023/07/08 11:20:42;;;;;;;;;3.00;3.00;;;;;;;;5030400;28;8983;-84
2023/07/08 11:23:18;;;;;;;;;1.00;1.00;;;;;;;;5031448;28;8872;-82
2023/07/08 11:25:48;;;;;;;;;2.80;2.40;;;;;;;;5031108;28;8855;-80
2023/07/08 11:28:19;;;;;;;;;2.00;2.00;;;;;;;;5030998;28;8929;-82
2023/07/08 11:30:48;;;;;;;;;6.00;3.00;;;;;;;;5030448;28;8806;-85
2023/07/08 11:33:16;;;;;;;;;3.00;3.00;;;;;;;;5030860;28;9626;-76
2023/07/08 11:35:47;;;;;;;;;1.00;1.00;;;;;;;;5030506;28;9670;-83
2023/07/08 11:38:16;;;;;;;;;4.20;4.20;;;;;;;;5030480;28;8868;-81
2023/07/08 11:40:57;;;;;;;;;3.00;3.00;;;;;;;;5031172;28;8894;-86
2023/07/08 11:43:25;;;;;;;;;5.00;3.80;;;;;;;;5032179;28;8852;-82
2023/07/08 11:45:56;;;;;;;;;4.00;4.00;;;;;;;;5035269;28;8886;-85
2023/07/08 11:48:26;;;;;;;;;3.60;3.60;;;;;;;;5038769;28;8942;-87
2023/07/08 11:50:54;;;;;;;;;3.80;3.80;;;;;;;;5037429;28;8860;-87
2023/07/08 11:53:37;;;;;;;;;3.40;3.40;;;;;;;;5036854;28;8860;-87
2023/07/08 11:56:23;;;;;;;;;4.00;4.00;;;;;;;;5032732;28;8864;-81
2023/07/08 11:59:00;;;;;;;;;3.80;3.80;;;;;;;;5030437;28;8848;-82
2023/07/08 12:01:29;;;;;;;;;3.20;3.20;;;;;;;;5029528;28;8812;-81
2023/07/08 12:04:01;;;;;;;;;5.00;3.00;;;;;;;;5039786;28;8853;-80
2023/07/08 12:06:54;;;;;;;;;3.80;3.80;;;;;;;;5050048;28;8853;-81
2023/07/08 12:09:26;;;;;;;;;3.80;3.80;;;;;;;;5049856;28;8857;-82
2023/07/08 12:12:01;;;;;;;;;4.00;4.00;;;;;;;;5050335;28;8861;-81
2023/07/08 12:14:34;;;;;;;;;4.00;3.00;;;;;;;;5049652;28;8907;-81
2023/07/08 12:17:01;;;;;;;;;5.40;3.80;;;;;;;;5050145;28;8877;-84
2023/07/08 12:19:35;;;;;;;;;4.80;4.80;;;;;;;;5049333;28;8849;-80
2023/07/08 12:22:02;;;;;;;;;5.20;4.40;;;;;;;;5049920;28;8868;-82
2023/07/08 12:24:34;;;;;;;;;3.60;3.60;;;;;;;;5049836;28;8889;-82
2023/07/08 12:27:04;;;;;;;;;3.40;3.40;;;;;;;;5049829;28;9603;-82
2023/07/08 12:29:32;;;;;;;;;3.20;3.20;;;;;;;;5049289;28;9628;-82
2023/07/08 12:32:01;;;;;;;;;4.60;4.60;;;;;;;;5048394;28;8802;-80
2023/07/08 12:34:31;;;;;;;;;4.00;4.00;;;;;;;;5049519;28;8976;-81
2023/07/08 12:37:13;;;;;;;;;4.40;4.40;;;;;;;;5049828;28;8928;-81
2023/07/08 12:39:45;;;;;;;;;4.00;4.00;;;;;;;;5049373;28;8980;-81
2023/07/08 12:42:14;;;;;;;;;3.00;3.00;;;;;;;;5049894;28;8854;-82
2023/07/08 12:44:48;;;;;;;;;3.40;3.40;;;;;;;;5049996;28;8976;-83
2023/07/08 12:47:15;;;;;;;;;2.40;2.40;;;;;;;;5049703;28;8934;-86
2023/07/08 12:49:43;;;;;;;;;4.80;4.80;;;;;;;;5049415;28;8857;-83
2023/07/08 12:52:21;;;;;;;;;3.40;3.40;;;;;;;;5050335;28;8999;-89
2023/07/08 12:54:50;;;;;;;;;3.40;3.40;;;;;;;;5051692;28;8888;-82
2023/07/08 12:57:24;;;;;;;;;1.20;1.00;;;;;;;;5050215;28;8960;-82
2023/07/08 12:59:58;;;;;;;;;4.00;4.00;;;;;;;;5049477;28;8857;-82
2023/07/08 13:02:30;;;;;;;;;2.60;2.60;;;;;;;;5049390;28;8781;-84
2023/07/08 13:05:00;;;;;;;;;5.20;4.00;;;;;;;;5049543;28;8865;-82
2023/07/08 13:07:35;;;;;;;;;2.20;2.20;;;;;;;;5049828;28;8840;-83
2023/07/08 13:13:18;;;;;;;;;3.00;3.00;;;;;;;;5048803;28;8952;-81
2023/07/08 13:15:46;;;;;;;;;5.60;5.60;;;;;;;;5049985;28;8869;-81
2023/07/08 13:18:18;;;;;;;;;5.40;4.60;;;;;;;;5051544;28;8989;-80
2023/07/08 13:20:48;;;;;;;;;7.00;4.80;;;;;;;;5052293;28;8985;-81
2023/07/08 13:23:15;;;;;;;;;6.00;4.60;;;;;;;;5053145;28;8865;-80
2023/07/08 13:25:42;;;;;;;;;4.40;3.60;;;;;;;;5052388;28;8970;-80
2023/07/08 13:28:19;;;;;;;;;4.80;4.80;;;;;;;;5050285;28;8939;-81
2023/07/08 13:30:54;;;;;;;;;6.00;4.80;;;;;;;;5048756;28;8792;-81
2023/07/08 13:33:21;;;;;;;;;4.00;4.00;;;;;;;;5049153;28;8984;-81
2023/07/08 13:35:50;;;;;;;;;5.20;5.20;;;;;;;;5048467;28;9701;-81
2023/07/08 13:38:19;;;;;;;;;5.00;5.00;;;;;;;;5048663;28;8861;-81
2023/07/08 13:40:49;;;;;;;;;4.00;4.00;;;;;;;;5048835;28;8841;-81
2023/07/08 13:43:17;;;;;;;;;3.40;3.40;;;;;;;;5051443;28;8995;-78
2023/07/08 13:45:47;;;;;;;;;4.00;4.00;;;;;;;;5054235;28;9668;-80
2023/07/08 13:48:19;;;;;;;;;5.40;4.00;;;;;;;;5052630;28;8857;-80
2023/07/08 13:50:49;;;;;;;;;6.20;4.40;;;;;;;;5052263;28;9640;-82
2023/07/08 13:53:19;;;;;;;;;4.80;4.80;;;;;;;;5052702;28;8922;-82
2023/07/08 13:55:57;;;;;;;;;4.00;4.00;;;;;;;;5052461;28;8857;-81
2023/07/08 13:58:30;;;;;;;;;3.60;3.60;;;;;;;;5052594;28;8871;-82
2023/07/08 14:00:58;;;;;;;;;4.80;4.60;;;;;;;;5052242;28;8790;-81
2023/07/08 14:03:26;;;;;;;;;6.00;3.20;;;;;;;;5052202;28;8988;-81
2023/07/08 14:05:53;;;;;;;;;4.40;3.20;;;;;;;;5052308;28;8864;-82
2023/07/08 14:08:22;;;;;;;;;2.80;2.80;;;;;;;;5052421;28;8976;-82
2023/07/08 14:10:49;;;;;;;;;4.00;4.00;;;;;;;;5051937;28;8876;-82
2023/07/08 14:13:17;;;;;;;;;4.40;4.40;;;;;;;;5052125;28;8964;-83
2023/07/08 14:15:48;;;;;;;;;3.40;3.40;;;;;;;;5052135;28;8888;-82
2023/07/08 14:18:15;;;;;;;;;5.80;4.00;;;;;;;;5052083;28;8887;-81
2023/07/08 14:20:43;;;;;;;;;5.00;3.40;;;;;;;;5051902;28;8865;-82
2023/07/08 14:23:12;;;;;;;;;4.80;4.80;;;;;;;;5052063;28;8857;-82
2023/07/08 14:25:40;;;;;;;;;4.40;4.40;;;;;;;;5051930;28;8857;-83
2023/07/08 14:28:08;;;;;;;;;3.20;3.20;;;;;;;;5051763;28;8869;-81
2023/07/08 14:30:38;;;;;;;;;4.80;4.20;;;;;;;;5051260;28;8853;-81
2023/07/08 14:33:10;;;;;;;;;4.00;4.00;;;;;;;;5052005;28;8857;-81
2023/07/08 14:35:40;;;;;;;;;3.00;3.00;;;;;;;;5051788;28;8865;-81
2023/07/08 14:38:13;;;;;;;;;4.20;3.60;;;;;;;;5051990;28;9619;-82
2023/07/08 14:40:42;;;;;;;;;4.20;4.20;;;;;;;;5051893;28;8880;-82
2023/07/08 14:43:28;;;;;;;;;2.20;2.20;;;;;;;;5051779;28;8868;-81
2023/07/08 14:45:59;;;;;;;;;4.00;4.00;;;;;;;;5052204;28;8858;-81
2023/07/08 14:48:29;;;;;;;;;6.00;4.00;;;;;;;;5052822;28;8865;-84
2023/07/08 14:50:57;;;;;;;;;4.00;4.00;;;;;;;;5057148;28;8853;-86
2023/07/08 14:53:25;;;;;;;;;3.60;3.60;;;;;;;;5056873;28;8861;-85
2023/07/08 14:55:54;;;;;;;;;4.40;4.40;;;;;;;;5055135;28;8854;-87
2023/07/08 14:58:23;;;;;;;;;3.60;3.60;;;;;;;;5053682;28;8858;-84
2023/07/08 15:00:52;;;;;;;;;4.60;3.60;;;;;;;;5051810;28;8893;-84
2023/07/08 15:03:19;;;;;;;;;4.80;4.20;;;;;;;;5051718;28;8886;-82
2023/07/08 15:05:48;;;;;;;;;6.00;4.40;;;;;;;;5051636;28;8879;-90
2023/07/08 15:08:15;;;;;;;;;4.60;4.60;;;;;;;;5050917;28;8865;-84
2023/07/08 15:10:46;;;;;;;;;6.20;4.80;;;;;;;;5051027;28;8849;-85